sensor_id;sensor_type;location;lat;lon;timestamp;P1;durP1;ratioP1;P2;durP2;ratioP2
9918;SDS011;4998;51.024;13.828;2023-07-13T00:00:02;1.87;;;1.70;;
9918;SDS011;4998;51.024;13.828;2023-07-13T00:02:34;2.43;;;1.90;;
9918;SDS011;4998;51.024;13.828;2023-07-13T00:05:01;2.37;;;1.90;;
9918;SDS011;4998;51.024;13.828;2023-07-13T00:07:28;1.90;;;1.80;;
9918;SDS011;4998;51.024;13.828;2023-07-13T00:09:57;1.90;;;1.80;;
9918;SDS011;4998;51.024;13.828;2023-07-13T00:12:26;2.10;;;1.90;;
9918;SDS011;4998;51.024;13.828;2023-07-13T00:14:55;1.80;;;1.70;;
9918;SDS011;4998;51.024;13.828;2023-07-13T00:17:23;2.20;;;2.10;;
9918;SDS011;4998;51.024;13.828;2023-07-13T00:19:50;1.73;;;1.63;;
9918;SDS011;4998;51.024;13.828;2023-07-13T00:22:18;1.90;;;1.80;;
9918;SDS011;4998;51.024;13.828;2023-07-13T00:24:45;1.77;;;1.67;;
9918;SDS011;4998;51.024;13.828;2023-07-13T00:27:13;2.00;;;1.90;;
9918;SDS011;4998;51.024;13.828;2023-07-13T00:29:40;2.00;;;1.90;;
9918;SDS011;4998;51.024;13.828;2023-07-13T00:32:08;2.10;;;2.00;;
9918;SDS011;4998;51.024;13.828;2023-07-13T00:34:36;1.80;;;1.70;;
9918;SDS011;4998;51.024;13.828;2023-07-13T00:37:03;2.67;;;1.73;;
9918;SDS011;4998;51.024;13.828;2023-07-13T00:39:33;1.87;;;1.77;;
9918;SDS011;4998;51.024;13.828;2023-07-13T00:42:00;1.57;;;1.47;;
9918;SDS011;4998;51.024;13.828;2023-07-13T00:44:29;2.70;;;2.00;;
9918;SDS011;4998;51.024;13.828;2023-07-13T00:46:56;2.30;;;2.10;;
9918;SDS011;4998;51.024;13.828;2023-07-13T00:49:24;2.80;;;2.03;;
9918;SDS011;4998;51.024;13.828;2023-07-13T00:51:54;2.13;;;1.90;;
9918;SDS011;4998;51.024;13.828;2023-07-13T00:54:24;2.83;;;1.63;;
9918;SDS011;4998;51.024;13.828;2023-07-13T00:56:55;1.80;;;1.70;;
9918;SDS011;4998;51.024;13.828;2023-07-13T00:59:26;1.80;;;1.70;;
9918;SDS011;4998;51.024;13.828;2023-07-13T01:01:54;1.70;;;1.53;;
9918;SDS011;4998;51.024;13.828;2023-07-13T01:04:23;1.97;;;1.80;;
9918;SDS011;4998;51.024;13.828;2023-07-13T01:06:50;3.33;;;2.00;;
9918;SDS011;4998;51.024;13.828;2023-07-13T01:09:18;2.93;;;2.13;;
9918;SDS011;4998;51.024;13.828;2023-07-13T01:11:46;2.37;;;2.17;;
9918;SDS011;4998;51.024;13.828;2023-07-13T01:14:14;2.00;;;1.90;;
9918;SDS011;4998;51.024;13.828;2023-07-13T01:16:42;2.23;;;2.03;;
9918;SDS011;4998;51.024;13.828;2023-07-13T01:19:15;2.90;;;1.97;;
9918;SDS011;4998;51.024;13.828;2023-07-13T01:22:02;2.83;;;2.57;;
9918;SDS011;4998;51.024;13.828;2023-07-13T01:24:34;2.90;;;1.93;;
9918;SDS011;4998;51.024;13.828;2023-07-13T01:27:01;2.53;;;2.17;;
9918;SDS011;4998;51.024;13.828;2023-07-13T01:29:29;2.80;;;2.00;;
9918;SDS011;4998;51.024;13.828;2023-07-13T01:31:57;2.30;;;1.93;;
9918;SDS011;4998;51.024;13.828;2023-07-13T01:34:25;2.13;;;1.93;;
9918;SDS011;4998;51.024;13.828;2023-07-13T01:36:52;2.07;;;1.90;;
9918;SDS011;4998;51.024;13.828;2023-07-13T01:39:21;2.00;;;1.90;;
9918;SDS011;4998;51.024;13.828;2023-07-13T01:41:49;2.10;;;2.00;;
9918;SDS011;4998;51.024;13.828;2023-07-13T01:44:16;2.50;;;2.30;;
9918;SDS011;4998;51.024;13.828;2023-07-13T01:46:43;2.43;;;2.13;;
9918;SDS011;4998;51.024;13.828;2023-07-13T01:49:10;2.27;;;2.03;;
9918;SDS011;4998;51.024;13.828;2023-07-13T01:51:36;2.00;;;1.90;;
9918;SDS011;4998;51.024;13.828;2023-07-13T01:54:04;2.07;;;1.80;;
9918;SDS011;4998;51.024;13.828;2023-07-13T01:56:32;7.90;;;2.53;;
9918;SDS011;4998;51.024;13.828;2023-07-13T01:58:59;2.27;;;2.10;;
9918;SDS011;4998;51.024;13.828;2023-07-13T02:01:26;3.50;;;2.70;;
9918;SDS011;4998;51.024;13.828;2023-07-13T02:03:53;2.90;;;2.30;;
9918;SDS011;4998;51.024;13.828;2023-07-13T02:06:21;2.87;;;2.20;;
9918;SDS011;4998;51.024;13.828;2023-07-13T02:08:48;3.37;;;2.30;;
9918;SDS011;4998;51.024;13.828;2023-07-13T02:11:15;3.23;;;2.20;;
9918;SDS011;4998;51.024;13.828;2023-07-13T02:13:43;2.27;;;2.00;;
9918;SDS011;4998;51.024;13.828;2023-07-13T02:16:10;3.60;;;2.40;;
9918;SDS011;4998;51.024;13.828;2023-07-13T02:18:37;4.23;;;2.60;;
9918;SDS011;4998;51.024;13.828;2023-07-13T02:21:04;3.10;;;2.50;;
9918;SDS011;4998;51.024;13.828;2023-07-13T02:23:31;2.60;;;2.40;;
9918;SDS011;4998;51.024;13.828;2023-07-13T02:25:59;2.40;;;2.20;;
9918;SDS011;4998;51.024;13.828;2023-07-13T02:28:29;2.57;;;2.37;;
9918;SDS011;4998;51.024;13.828;2023-07-13T02:31:03;6.23;;;2.77;;
9918;SDS011;4998;51.024;13.828;2023-07-13T02:33:31;3.80;;;2.57;;
9918;SDS011;4998;51.024;13.828;2023-07-13T02:35:58;4.67;;;2.50;;
9918;SDS011;4998;51.024;13.828;2023-07-13T02:38:25;2.53;;;2.37;;
9918;SDS011;4998;51.024;13.828;2023-07-13T02:40:52;3.00;;;2.70;;
9918;SDS011;4998;51.024;13.828;2023-07-13T02:43:19;2.37;;;2.13;;
9918;SDS011;4998;51.024;13.828;2023-07-13T02:45:46;2.17;;;1.97;;
9918;SDS011;4998;51.024;13.828;2023-07-13T02:48:14;3.20;;;2.70;;
9918;SDS011;4998;51.024;13.828;2023-07-13T02:50:41;2.53;;;2.33;;
9918;SDS011;4998;51.024;13.828;2023-07-13T02:53:10;2.23;;;2.00;;
9918;SDS011;4998;51.024;13.828;2023-07-13T02:55:37;2.10;;;2.00;;
9918;SDS011;4998;51.024;13.828;2023-07-13T02:58:06;3.70;;;1.97;;
9918;SDS011;4998;51.024;13.828;2023-07-13T03:00:33;2.73;;;2.20;;
9918;SDS011;4998;51.024;13.828;2023-07-13T03:03:00;2.80;;;2.50;;
9918;SDS011;4998;51.024;13.828;2023-07-13T03:05:28;2.90;;;2.37;;
9918;SDS011;4998;51.024;13.828;2023-07-13T03:07:55;4.43;;;2.03;;
9918;SDS011;4998;51.024;13.828;2023-07-13T03:10:22;4.40;;;2.33;;
9918;SDS011;4998;51.024;13.828;2023-07-13T03:12:50;2.67;;;2.43;;
9918;SDS011;4998;51.024;13.828;2023-07-13T03:15:17;2.50;;;2.30;;
9918;SDS011;4998;51.024;13.828;2023-07-13T03:17:44;3.10;;;2.47;;
9918;SDS011;4998;51.024;13.828;2023-07-13T03:20:12;4.57;;;2.30;;
9918;SDS011;4998;51.024;13.828;2023-07-13T03:22:40;1.97;;;1.80;;
9918;SDS011;4998;51.024;13.828;2023-07-13T03:25:08;2.23;;;2.03;;
9918;SDS011;4998;51.024;13.828;2023-07-13T03:27:35;3.10;;;2.27;;
9918;SDS011;4998;51.024;13.828;2023-07-13T03:30:03;2.30;;;2.10;;
9918;SDS011;4998;51.024;13.828;2023-07-13T03:32:31;3.73;;;2.00;;
9918;SDS011;4998;51.024;13.828;2023-07-13T03:34:58;2.20;;;1.87;;
9918;SDS011;4998;51.024;13.828;2023-07-13T03:37:25;2.40;;;2.17;;
9918;SDS011;4998;51.024;13.828;2023-07-13T03:39:54;3.23;;;2.13;;
9918;SDS011;4998;51.024;13.828;2023-07-13T03:42:21;2.50;;;2.10;;
9918;SDS011;4998;51.024;13.828;2023-07-13T03:44:48;2.33;;;2.13;;
9918;SDS011;4998;51.024;13.828;2023-07-13T03:47:17;2.40;;;2.20;;
9918;SDS011;4998;51.024;13.828;2023-07-13T03:49:44;2.60;;;2.40;;
9918;SDS011;4998;51.024;13.828;2023-07-13T03:52:12;4.00;;;2.37;;
9918;SDS011;4998;51.024;13.828;2023-07-13T03:54:39;2.30;;;2.10;;
9918;SDS011;4998;51.024;13.828;2023-07-13T03:57:08;2.43;;;1.90;;
9918;SDS011;4998;51.024;13.828;2023-07-13T03:59:35;2.53;;;2.33;;
9918;SDS011;4998;51.024;13.828;2023-07-13T04:02:02;3.63;;;2.13;;
9918;SDS011;4998;51.024;13.828;2023-07-13T04:04:30;2.20;;;2.03;;
9918;SDS011;4998;51.024;13.828;2023-07-13T04:06:57;2.00;;;1.90;;
9918;SDS011;4998;51.024;13.828;2023-07-13T04:09:24;2.87;;;2.10;;
9918;SDS011;4998;51.024;13.828;2023-07-13T04:11:51;2.60;;;2.30;;
9918;SDS011;4998;51.024;13.828;2023-07-13T04:14:20;6.77;;;2.03;;
9918;SDS011;4998;51.024;13.828;2023-07-13T04:16:46;3.03;;;2.07;;
9918;SDS011;4998;51.024;13.828;2023-07-13T04:19:13;2.80;;;2.10;;
9918;SDS011;4998;51.024;13.828;2023-07-13T04:21:40;3.00;;;1.90;;
9918;SDS011;4998;51.024;13.828;2023-07-13T04:24:07;1.83;;;1.67;;
9918;SDS011;4998;51.024;13.828;2023-07-13T04:26:34;2.10;;;2.00;;
9918;SDS011;4998;51.024;13.828;2023-07-13T04:29:03;2.23;;;2.00;;
9918;SDS011;4998;51.024;13.828;2023-07-13T04:31:32;2.40;;;2.20;;
9918;SDS011;4998;51.024;13.828;2023-07-13T04:33:59;2.60;;;2.10;;
9918;SDS011;4998;51.024;13.828;2023-07-13T04:36:28;2.50;;;2.30;;
9918;SDS011;4998;51.024;13.828;2023-07-13T04:38:55;3.33;;;2.27;;
9918;SDS011;4998;51.024;13.828;2023-07-13T04:41:22;2.50;;;2.10;;
9918;SDS011;4998;51.024;13.828;2023-07-13T04:43:49;3.70;;;2.37;;
9918;SDS011;4998;51.024;13.828;2023-07-13T04:46:16;1.90;;;1.80;;
9918;SDS011;4998;51.024;13.828;2023-07-13T04:48:45;2.37;;;2.17;;
9918;SDS011;4998;51.024;13.828;2023-07-13T04:51:12;2.13;;;2.03;;
9918;SDS011;4998;51.024;13.828;2023-07-13T04:53:39;3.67;;;2.27;;
9918;SDS011;4998;51.024;13.828;2023-07-13T04:56:06;3.03;;;2.20;;
9918;SDS011;4998;51.024;13.828;2023-07-13T04:58:33;3.50;;;1.90;;
9918;SDS011;4998;51.024;13.828;2023-07-13T05:01:01;4.27;;;2.17;;
9918;SDS011;4998;51.024;13.828;2023-07-13T05:03:28;2.27;;;2.07;;
9918;SDS011;4998;51.024;13.828;2023-07-13T05:05:58;2.20;;;2.03;;
9918;SDS011;4998;51.024;13.828;2023-07-13T05:08:26;2.10;;;2.00;;
9918;SDS011;4998;51.024;13.828;2023-07-13T05:10:53;2.30;;;2.20;;
9918;SDS011;4998;51.024;13.828;2023-07-13T05:13:20;2.57;;;2.17;;
9918;SDS011;4998;51.024;13.828;2023-07-13T05:15:55;2.27;;;2.07;;
9918;SDS011;4998;51.024;13.828;2023-07-13T05:18:22;3.53;;;2.20;;
9918;SDS011;4998;51.024;13.828;2023-07-13T05:20:56;2.17;;;2.00;;
9918;SDS011;4998;51.024;13.828;2023-07-13T05:23:26;2.47;;;2.20;;
9918;SDS011;4998;51.024;13.828;2023-07-13T05:25:53;2.67;;;2.40;;
9918;SDS011;4998;51.024;13.828;2023-07-13T05:28:20;2.70;;;2.20;;
9918;SDS011;4998;51.024;13.828;2023-07-13T05:30:48;3.50;;;2.30;;
9918;SDS011;4998;51.024;13.828;2023-07-13T05:33:15;2.20;;;2.10;;
9918;SDS011;4998;51.024;13.828;2023-07-13T05:35:42;2.40;;;2.20;;
9918;SDS011;4998;51.024;13.828;2023-07-13T05:38:11;2.60;;;2.40;;
9918;SDS011;4998;51.024;13.828;2023-07-13T05:40:39;2.00;;;1.90;;
9918;SDS011;4998;51.024;13.828;2023-07-13T05:43:06;2.13;;;1.93;;
9918;SDS011;4998;51.024;13.828;2023-07-13T05:45:33;3.03;;;2.20;;
9918;SDS011;4998;51.024;13.828;2023-07-13T05:48:00;3.37;;;2.30;;
9918;SDS011;4998;51.024;13.828;2023-07-13T05:50:26;4.97;;;2.10;;
9918;SDS011;4998;51.024;13.828;2023-07-13T05:52:53;2.30;;;2.10;;
9918;SDS011;4998;51.024;13.828;2023-07-13T05:55:23;2.50;;;2.30;;
9918;SDS011;4998;51.024;13.828;2023-07-13T05:57:50;2.13;;;2.00;;
9918;SDS011;4998;51.024;13.828;2023-07-13T06:00:17;2.00;;;1.90;;
9918;SDS011;4998;51.024;13.828;2023-07-13T06:02:44;2.47;;;2.23;;
9918;SDS011;4998;51.024;13.828;2023-07-13T06:05:11;3.27;;;1.73;;
9918;SDS011;4998;51.024;13.828;2023-07-13T06:07:38;1.90;;;1.80;;
9918;SDS011;4998;51.024;13.828;2023-07-13T06:10:05;1.97;;;1.87;;
9918;SDS011;4998;51.024;13.828;2023-07-13T06:12:34;2.90;;;1.90;;
9918;SDS011;4998;51.024;13.828;2023-07-13T06:15:01;7.60;;;2.17;;
9918;SDS011;4998;51.024;13.828;2023-07-13T06:17:28;3.90;;;2.23;;
9918;SDS011;4998;51.024;13.828;2023-07-13T06:19:55;2.50;;;2.30;;
9918;SDS011;4998;51.024;13.828;2023-07-13T06:22:22;2.17;;;1.97;;
9918;SDS011;4998;51.024;13.828;2023-07-13T06:24:49;2.40;;;2.20;;
9918;SDS011;4998;51.024;13.828;2023-07-13T06:27:17;3.87;;;2.20;;
9918;SDS011;4998;51.024;13.828;2023-07-13T06:29:45;2.80;;;2.10;;
9918;SDS011;4998;51.024;13.828;2023-07-13T06:32:12;2.40;;;2.10;;
9918;SDS011;4998;51.024;13.828;2023-07-13T06:34:39;1.83;;;1.73;;
9918;SDS011;4998;51.024;13.828;2023-07-13T06:37:06;2.23;;;2.00;;
9918;SDS011;4998;51.024;13.828;2023-07-13T06:39:33;2.40;;;2.20;;
9918;SDS011;4998;51.024;13.828;2023-07-13T06:42:00;2.60;;;2.27;;
9918;SDS011;4998;51.024;13.828;2023-07-13T06:44:27;3.70;;;2.37;;
9918;SDS011;4998;51.024;13.828;2023-07-13T06:46:55;2.60;;;2.50;;
9918;SDS011;4998;51.024;13.828;2023-07-13T06:49:22;2.13;;;2.03;;
9918;SDS011;4998;51.024;13.828;2023-07-13T06:51:49;3.20;;;2.17;;
9918;SDS011;4998;51.024;13.828;2023-07-13T06:54:16;2.30;;;2.07;;
9918;SDS011;4998;51.024;13.828;2023-07-13T06:56:43;2.63;;;2.40;;
9918;SDS011;4998;51.024;13.828;2023-07-13T06:59:10;3.30;;;2.13;;
9918;SDS011;4998;51.024;13.828;2023-07-13T07:01:37;3.97;;;2.23;;
9918;SDS011;4998;51.024;13.828;2023-07-13T07:04:06;5.03;;;2.60;;
9918;SDS011;4998;51.024;13.828;2023-07-13T07:06:33;3.20;;;2.53;;
9918;SDS011;4998;51.024;13.828;2023-07-13T07:09:00;4.03;;;2.33;;
9918;SDS011;4998;51.024;13.828;2023-07-13T07:11:27;3.47;;;2.00;;
9918;SDS011;4998;51.024;13.828;2023-07-13T07:13:54;3.50;;;2.20;;
9918;SDS011;4998;51.024;13.828;2023-07-13T07:16:21;5.00;;;2.47;;
9918;SDS011;4998;51.024;13.828;2023-07-13T07:18:50;2.17;;;1.77;;
9918;SDS011;4998;51.024;13.828;2023-07-13T07:21:19;3.60;;;2.03;;
9918;SDS011;4998;51.024;13.828;2023-07-13T07:23:47;2.23;;;2.03;;
9918;SDS011;4998;51.024;13.828;2023-07-13T07:26:15;2.27;;;2.07;;
9918;SDS011;4998;51.024;13.828;2023-07-13T07:28:42;2.17;;;2.07;;
9918;SDS011;4998;51.024;13.828;2023-07-13T07:31:09;2.00;;;1.80;;
9918;SDS011;4998;51.024;13.828;2023-07-13T07:33:36;1.90;;;1.60;;
9918;SDS011;4998;51.024;13.828;2023-07-13T07:36:03;2.37;;;2.17;;
9918;SDS011;4998;51.024;13.828;2023-07-13T07:38:32;2.03;;;1.73;;
9918;SDS011;4998;51.024;13.828;2023-07-13T07:41:01;2.30;;;2.10;;
9918;SDS011;4998;51.024;13.828;2023-07-13T07:43:29;3.70;;;2.20;;
9918;SDS011;4998;51.024;13.828;2023-07-13T07:45:56;2.00;;;1.80;;
9918;SDS011;4998;51.024;13.828;2023-07-13T07:48:23;2.43;;;2.23;;
9918;SDS011;4998;51.024;13.828;2023-07-13T07:50:50;4.10;;;2.70;;
9918;SDS011;4998;51.024;13.828;2023-07-13T07:53:17;2.93;;;2.20;;
9918;SDS011;4998;51.024;13.828;2023-07-13T07:55:45;2.13;;;1.70;;
9918;SDS011;4998;51.024;13.828;2023-07-13T07:58:13;3.27;;;1.87;;
9918;SDS011;4998;51.024;13.828;2023-07-13T08:00:40;1.87;;;1.70;;
9918;SDS011;4998;51.024;13.828;2023-07-13T08:03:07;2.27;;;2.10;;
9918;SDS011;4998;51.024;13.828;2023-07-13T08:05:34;3.13;;;1.60;;
9918;SDS011;4998;51.024;13.828;2023-07-13T08:08:02;3.10;;;1.60;;
9918;SDS011;4998;51.024;13.828;2023-07-13T08:10:29;1.87;;;1.67;;
9918;SDS011;4998;51.024;13.828;2023-07-13T08:12:57;1.90;;;1.50;;
9918;SDS011;4998;51.024;13.828;2023-07-13T08:15:24;2.60;;;1.70;;
9918;SDS011;4998;51.024;13.828;2023-07-13T08:17:51;2.10;;;1.70;;
9918;SDS011;4998;51.024;13.828;2023-07-13T08:20:18;2.57;;;1.67;;
9918;SDS011;4998;51.024;13.828;2023-07-13T08:22:45;1.80;;;1.30;;
9918;SDS011;4998;51.024;13.828;2023-07-13T08:25:12;2.43;;;1.57;;
9918;SDS011;4998;51.024;13.828;2023-07-13T08:27:39;2.00;;;1.60;;
9918;SDS011;4998;51.024;13.828;2023-07-13T08:30:08;2.63;;;1.50;;
9918;SDS011;4998;51.024;13.828;2023-07-13T08:32:36;2.03;;;1.70;;
9918;SDS011;4998;51.024;13.828;2023-07-13T08:35:04;2.10;;;1.50;;
9918;SDS011;4998;51.024;13.828;2023-07-13T08:37:31;2.40;;;1.53;;
9918;SDS011;4998;51.024;13.828;2023-07-13T08:39:58;1.87;;;1.67;;
9918;SDS011;4998;51.024;13.828;2023-07-13T08:42:30;4.03;;;1.50;;
9918;SDS011;4998;51.024;13.828;2023-07-13T08:45:14;1.50;;;1.40;;
9918;SDS011;4998;51.024;13.828;2023-07-13T08:47:48;2.10;;;1.40;;
9918;SDS011;4998;51.024;13.828;2023-07-13T08:50:21;1.50;;;1.40;;
9918;SDS011;4998;51.024;13.828;2023-07-13T08:52:53;2.20;;;1.50;;
9918;SDS011;4998;51.024;13.828;2023-07-13T08:55:24;2.10;;;1.50;;
9918;SDS011;4998;51.024;13.828;2023-07-13T08:57:57;2.67;;;1.50;;
9918;SDS011;4998;51.024;13.828;2023-07-13T09:00:33;1.40;;;1.30;;
9918;SDS011;4998;51.024;13.828;2023-07-13T09:03:08;2.10;;;1.40;;
9918;SDS011;4998;51.024;13.828;2023-07-13T09:05:45;2.10;;;1.30;;
9918;SDS011;4998;51.024;13.828;2023-07-13T09:08:22;4.50;;;1.60;;
9918;SDS011;4998;51.024;13.828;2023-07-13T09:11:14;3.07;;;1.50;;
9918;SDS011;4998;51.024;13.828;2023-07-13T09:13:56;4.20;;;1.47;;
9918;SDS011;4998;51.024;13.828;2023-07-13T09:16:34;4.43;;;1.43;;
9918;SDS011;4998;51.024;13.828;2023-07-13T09:19:04;2.87;;;1.50;;
9918;SDS011;4998;51.024;13.828;2023-07-13T09:21:33;1.60;;;1.40;;
9918;SDS011;4998;51.024;13.828;2023-07-13T09:24:25;1.73;;;1.60;;
9918;SDS011;4998;51.024;13.828;2023-07-13T09:26:55;1.60;;;1.33;;
9918;SDS011;4998;51.024;13.828;2023-07-13T09:29:26;1.57;;;1.30;;
9918;SDS011;4998;51.024;13.828;2023-07-13T09:31:57;1.60;;;1.50;;
9918;SDS011;4998;51.024;13.828;2023-07-13T09:34:28;1.37;;;1.27;;
9918;SDS011;4998;51.024;13.828;2023-07-13T09:36:56;4.07;;;1.70;;
9918;SDS011;4998;51.024;13.828;2023-07-13T09:39:24;1.50;;;1.40;;
9918;SDS011;4998;51.024;13.828;2023-07-13T09:41:54;1.50;;;1.40;;
9918;SDS011;4998;51.024;13.828;2023-07-13T09:44:27;1.40;;;1.30;;
9918;SDS011;4998;51.024;13.828;2023-07-13T09:46:58;1.60;;;1.50;;
9918;SDS011;4998;51.024;13.828;2023-07-13T09:49:27;1.40;;;1.30;;
9918;SDS011;4998;51.024;13.828;2023-07-13T09:51:59;5.33;;;1.90;;
9918;SDS011;4998;51.024;13.828;2023-07-13T09:54:28;1.83;;;1.67;;
9918;SDS011;4998;51.024;13.828;2023-07-13T09:56:56;2.20;;;1.50;;
9918;SDS011;4998;51.024;13.828;2023-07-13T09:59:27;1.90;;;1.70;;
9918;SDS011;4998;51.024;13.828;2023-07-13T10:01:56;1.57;;;1.47;;
9918;SDS011;4998;51.024;13.828;2023-07-13T10:04:27;2.97;;;1.40;;
9918;SDS011;4998;51.024;13.828;2023-07-13T10:07:04;1.80;;;1.37;;
9918;SDS011;4998;51.024;13.828;2023-07-13T10:09:32;1.50;;;1.40;;
9918;SDS011;4998;51.024;13.828;2023-07-13T10:11:59;1.90;;;1.63;;
9918;SDS011;4998;51.024;13.828;2023-07-13T10:14:26;1.80;;;1.50;;
9918;SDS011;4998;51.024;13.828;2023-07-13T10:16:56;1.50;;;1.40;;
9918;SDS011;4998;51.024;13.828;2023-07-13T10:19:27;2.80;;;1.70;;
9918;SDS011;4998;51.024;13.828;2023-07-13T10:21:59;2.10;;;1.40;;
9918;SDS011;4998;51.024;13.828;2023-07-13T10:24:30;4.73;;;1.80;;
9918;SDS011;4998;51.024;13.828;2023-07-13T10:27:00;2.60;;;1.63;;
9918;SDS011;4998;51.024;13.828;2023-07-13T10:29:34;1.87;;;1.63;;
9918;SDS011;4998;51.024;13.828;2023-07-13T10:32:07;1.43;;;1.20;;
9918;SDS011;4998;51.024;13.828;2023-07-13T10:34:37;2.37;;;1.53;;
9918;SDS011;4998;51.024;13.828;2023-07-13T10:37:05;1.20;;;1.10;;
9918;SDS011;4998;51.024;13.828;2023-07-13T10:39:33;2.07;;;1.40;;
9918;SDS011;4998;51.024;13.828;2023-07-13T10:42:03;3.47;;;1.50;;
9918;SDS011;4998;51.024;13.828;2023-07-13T10:44:33;1.40;;;1.30;;
9918;SDS011;4998;51.024;13.828;2023-07-13T10:47:01;2.17;;;1.50;;
9918;SDS011;4998;51.024;13.828;2023-07-13T10:49:34;2.13;;;1.20;;
9918;SDS011;4998;51.024;13.828;2023-07-13T10:52:03;1.50;;;1.40;;
9918;SDS011;4998;51.024;13.828;2023-07-13T10:54:31;2.53;;;1.50;;
9918;SDS011;4998;51.024;13.828;2023-07-13T10:57:14;1.40;;;1.30;;
9918;SDS011;4998;51.024;13.828;2023-07-13T10:59:43;3.53;;;1.30;;
9918;SDS011;4998;51.024;13.828;2023-07-13T11:02:17;5.73;;;1.93;;
9918;SDS011;4998;51.024;13.828;2023-07-13T11:04:51;1.30;;;1.10;;
9918;SDS011;4998;51.024;13.828;2023-07-13T11:07:22;3.10;;;1.33;;
9918;SDS011;4998;51.024;13.828;2023-07-13T11:09:52;1.07;;;1.07;;
9918;SDS011;4998;51.024;13.828;2023-07-13T11:12:27;1.30;;;1.20;;
9918;SDS011;4998;51.024;13.828;2023-07-13T11:15:10;1.83;;;1.47;;
9918;SDS011;4998;51.024;13.828;2023-07-13T11:17:49;3.00;;;1.30;;
9918;SDS011;4998;51.024;13.828;2023-07-13T11:23:17;2.70;;;1.33;;
9918;SDS011;4998;51.024;13.828;2023-07-13T11:25:56;1.20;;;1.10;;
9918;SDS011;4998;51.024;13.828;2023-07-13T11:28:25;1.97;;;1.60;;
9918;SDS011;4998;51.024;13.828;2023-07-13T11:31:00;1.73;;;1.30;;
9918;SDS011;4998;51.024;13.828;2023-07-13T11:36:23;1.63;;;1.50;;
9918;SDS011;4998;51.024;13.828;2023-07-13T11:38:58;1.23;;;1.10;;
9918;SDS011;4998;51.024;13.828;2023-07-13T11:41:30;2.10;;;1.20;;
9918;SDS011;4998;51.024;13.828;2023-07-13T11:44:07;1.50;;;1.30;;
9918;SDS011;4998;51.024;13.828;2023-07-13T11:46:44;3.63;;;1.40;;
9918;SDS011;4998;51.024;13.828;2023-07-13T11:49:15;1.30;;;1.20;;
9918;SDS011;4998;51.024;13.828;2023-07-13T11:51:43;2.73;;;1.40;;
9918;SDS011;4998;51.024;13.828;2023-07-13T11:54:15;1.30;;;1.20;;
9918;SDS011;4998;51.024;13.828;2023-07-13T11:56:48;3.83;;;1.57;;
9918;SDS011;4998;51.024;13.828;2023-07-13T11:59:16;1.67;;;1.47;;
9918;SDS011;4998;51.024;13.828;2023-07-13T12:01:44;1.53;;;1.43;;
9918;SDS011;4998;51.024;13.828;2023-07-13T12:04:19;1.60;;;1.50;;
9918;SDS011;4998;51.024;13.828;2023-07-13T12:06:54;1.83;;;1.43;;
9918;SDS011;4998;51.024;13.828;2023-07-13T12:09:25;1.90;;;1.53;;
9918;SDS011;4998;51.024;13.828;2023-07-13T12:11:55;1.40;;;1.17;;
9918;SDS011;4998;51.024;13.828;2023-07-13T12:14:25;1.83;;;1.43;;
9918;SDS011;4998;51.024;13.828;2023-07-13T12:16:52;1.63;;;1.23;;
9918;SDS011;4998;51.024;13.828;2023-07-13T12:19:23;1.63;;;1.30;;
9918;SDS011;4998;51.024;13.828;2023-07-13T12:21:52;4.57;;;1.50;;
9918;SDS011;4998;51.024;13.828;2023-07-13T12:24:22;1.53;;;1.40;;
9918;SDS011;4998;51.024;13.828;2023-07-13T12:26:53;2.23;;;1.50;;
9918;SDS011;4998;51.024;13.828;2023-07-13T12:29:21;2.80;;;1.60;;
9918;SDS011;4998;51.024;13.828;2023-07-13T12:31:48;2.10;;;1.40;;
9918;SDS011;4998;51.024;13.828;2023-07-13T12:34:18;2.13;;;1.43;;
9918;SDS011;4998;51.024;13.828;2023-07-13T12:36:48;1.53;;;1.30;;
9918;SDS011;4998;51.024;13.828;2023-07-13T12:39:17;3.37;;;1.60;;
9918;SDS011;4998;51.024;13.828;2023-07-13T12:41:46;2.00;;;1.77;;
9918;SDS011;4998;51.024;13.828;2023-07-13T12:44:14;3.03;;;1.50;;
9918;SDS011;4998;51.024;13.828;2023-07-13T12:46:53;3.00;;;1.40;;
9918;SDS011;4998;51.024;13.828;2023-07-13T12:49:31;1.00;;;1.00;;
9918;SDS011;4998;51.024;13.828;2023-07-13T12:52:02;3.20;;;1.60;;
9918;SDS011;4998;51.024;13.828;2023-07-13T12:54:30;1.40;;;1.30;;
9918;SDS011;4998;51.024;13.828;2023-07-13T12:56:58;2.80;;;1.43;;
9918;SDS011;4998;51.024;13.828;2023-07-13T12:59:29;1.30;;;1.20;;
9918;SDS011;4998;51.024;13.828;2023-07-13T13:02:01;1.20;;;1.10;;
9918;SDS011;4998;51.024;13.828;2023-07-13T13:04:30;4.20;;;1.40;;
9918;SDS011;4998;51.024;13.828;2023-07-13T13:07:01;1.93;;;1.60;;
9918;SDS011;4998;51.024;13.828;2023-07-13T13:09:30;1.97;;;1.30;;
9918;SDS011;4998;51.024;13.828;2023-07-13T13:11:57;2.40;;;1.53;;
9918;SDS011;4998;51.024;13.828;2023-07-13T13:14:24;2.90;;;1.90;;
9918;SDS011;4998;51.024;13.828;2023-07-13T13:16:51;2.30;;;1.50;;
9918;SDS011;4998;51.024;13.828;2023-07-13T13:19:20;1.83;;;1.30;;
9918;SDS011;4998;51.024;13.828;2023-07-13T13:21:49;1.27;;;1.17;;
9918;SDS011;4998;51.024;13.828;2023-07-13T13:24:20;2.03;;;1.40;;
9918;SDS011;4998;51.024;13.828;2023-07-13T13:26:48;1.30;;;1.20;;
9918;SDS011;4998;51.024;13.828;2023-07-13T13:29:18;2.00;;;1.20;;
9918;SDS011;4998;51.024;13.828;2023-07-13T13:31:49;1.90;;;1.40;;
9918;SDS011;4998;51.024;13.828;2023-07-13T13:34:17;4.13;;;1.40;;
9918;SDS011;4998;51.024;13.828;2023-07-13T13:36:45;1.43;;;1.33;;
9918;SDS011;4998;51.024;13.828;2023-07-13T13:39:21;3.77;;;1.20;;
9918;SDS011;4998;51.024;13.828;2023-07-13T13:41:51;1.80;;;1.27;;
9918;SDS011;4998;51.024;13.828;2023-07-13T13:44:19;1.30;;;1.20;;
9918;SDS011;4998;51.024;13.828;2023-07-13T13:46:49;3.63;;;1.33;;
9918;SDS011;4998;51.024;13.828;2023-07-13T13:49:27;2.10;;;1.30;;
9918;SDS011;4998;51.024;13.828;2023-07-13T13:51:54;1.30;;;1.20;;
9918;SDS011;4998;51.024;13.828;2023-07-13T13:54:23;2.33;;;1.10;;
9918;SDS011;4998;51.024;13.828;2023-07-13T13:56:51;1.67;;;1.30;;
9918;SDS011;4998;51.024;13.828;2023-07-13T13:59:19;5.20;;;1.27;;
9918;SDS011;4998;51.024;13.828;2023-07-13T14:01:46;1.47;;;1.17;;
9918;SDS011;4998;51.024;13.828;2023-07-13T14:04:15;1.77;;;1.30;;
9918;SDS011;4998;51.024;13.828;2023-07-13T14:06:44;2.40;;;1.30;;
9918;SDS011;4998;51.024;13.828;2023-07-13T14:09:12;2.03;;;1.20;;
9918;SDS011;4998;51.024;13.828;2023-07-13T14:11:42;1.30;;;1.20;;
9918;SDS011;4998;51.024;13.828;2023-07-13T14:14:12;1.93;;;1.40;;
9918;SDS011;4998;51.024;13.828;2023-07-13T14:16:43;1.63;;;1.50;;
9918;SDS011;4998;51.024;13.828;2023-07-13T14:19:12;1.93;;;1.20;;
9918;SDS011;4998;51.024;13.828;2023-07-13T14:21:40;1.47;;;1.37;;
9918;SDS011;4998;51.024;13.828;2023-07-13T14:24:07;2.60;;;1.40;;
9918;SDS011;4998;51.024;13.828;2023-07-13T14:26:36;1.43;;;1.33;;
9918;SDS011;4998;51.024;13.828;2023-07-13T14:29:10;2.73;;;1.50;;
9918;SDS011;4998;51.024;13.828;2023-07-13T14:31:40;1.40;;;1.30;;
9918;SDS011;4998;51.024;13.828;2023-07-13T14:34:07;1.20;;;1.10;;
9918;SDS011;4998;51.024;13.828;2023-07-13T14:36:36;1.60;;;1.10;;
9918;SDS011;4998;51.024;13.828;2023-07-13T14:39:09;2.60;;;1.60;;
9918;SDS011;4998;51.024;13.828;2023-07-13T14:41:39;2.30;;;1.70;;
9918;SDS011;4998;51.024;13.828;2023-07-13T14:44:11;1.70;;;1.53;;
9918;SDS011;4998;51.024;13.828;2023-07-13T14:46:38;2.83;;;1.40;;
9918;SDS011;4998;51.024;13.828;2023-07-13T14:49:06;1.50;;;1.40;;
9918;SDS011;4998;51.024;13.828;2023-07-13T14:51:38;2.83;;;1.10;;
9918;SDS011;4998;51.024;13.828;2023-07-13T14:54:05;1.30;;;1.17;;
9918;SDS011;4998;51.024;13.828;2023-07-13T14:56:35;1.77;;;1.30;;
9918;SDS011;4998;51.024;13.828;2023-07-13T14:59:02;2.90;;;1.70;;
9918;SDS011;4998;51.024;13.828;2023-07-13T15:01:31;2.00;;;1.40;;
9918;SDS011;4998;51.024;13.828;2023-07-13T15:03:58;1.93;;;1.40;;
9918;SDS011;4998;51.024;13.828;2023-07-13T15:06:25;1.47;;;1.37;;
9918;SDS011;4998;51.024;13.828;2023-07-13T15:08:52;2.10;;;1.60;;
9918;SDS011;4998;51.024;13.828;2023-07-13T15:11:20;1.37;;;1.27;;
9918;SDS011;4998;51.024;13.828;2023-07-13T15:13:47;1.73;;;1.40;;
9918;SDS011;4998;51.024;13.828;2023-07-13T15:16:16;3.33;;;1.30;;